Time;durP1;ratioP1;P1;durP2;ratioP2;P2;SDS_P1;SDS_P2;PMS_P1;PMS_P2;Temp;Humidity;BMP_temperature;BMP_pressure;BME280_temperature;BME280_humidity;BME280_pressure;Samples;Min_cycle;Max_cycle;Signal;HPM_P1;HPM_P2
2023/11/24 08:50:09;;;;;;;;;;;;;;;5.45;100.00;97023.11;1805417;77;20158;-72
2023/11/24 08:52:36;;;;;;;;;;;;;;;5.45;100.00;97034.25;1791762;79;20107;-69
2023/11/24 08:55:06;;;;;;;;;;;;;;;5.46;100.00;97020.87;1789155;79;20118;-69
2023/11/24 08:57:33;;;;;;;;;;;;;;;5.46;100.00;97030.73;1817312;79;20084;-72
2023/11/24 08:59:59;;;;;;;;;;;;;;;5.46;100.00;97021.70;1802767;77;20401;-70
2023/11/24 09:02:28;;;;;;;;;;;;;;;5.47;100.00;97032.84;1804055;77;20108;-69
2023/11/24 09:04:54;;;;;;;;;;;;;;;5.46;100.00;97028.62;1797501;77;20111;-70
2023/11/24 09:07:21;;;;;;;;;;;;;;;5.46;100.00;97029.44;1804956;77;20401;-74
2023/11/24 09:09:49;;;;;;;;;;;;;;;5.45;100.00;97036.02;1804099;77;20484;-69
2023/11/24 09:12:16;;;;;;;;;;;;;;;5.44;100.00;97034.38;1821935;78;20131;-68
2023/11/24 09:14:43;;;;;;;;;;;;;;;5.43;100.00;97035.32;1813677;77;20373;-73
2023/11/24 09:17:09;;;;;;;;;;;;;;;5.43;100.00;97034.03;1814131;77;20129;-68
2023/11/24 09:19:36;;;;;;;;;;;;;;;5.44;100.00;97024.06;1820462;78;20092;-71
2023/11/24 09:22:06;;;;;;;;;;;;;;;5.46;100.00;97026.03;1812673;78;20094;-73
2023/11/24 09:24:36;;;;;;;;;;;;;;;5.50;100.00;97036.45;1774082;80;20369;-73
2023/11/24 10:12:07;;;;;;;;;;;;;;;5.88;100.00;97055.99;1751828;80;20130;-68
2023/11/24 10:14:34;;;;;;;;;;;;;;;5.87;100.00;97060.00;1748554;82;20413;-70
2023/11/24 10:17:01;;;;;;;;;;;;;;;5.84;100.00;97061.55;1744377;81;20100;-76
2023/11/24 10:19:29;;;;;;;;;;;;;;;5.83;100.00;97060.73;1758259;81;20111;-71
2023/11/24 10:21:55;;;;;;;;;;;;;;;5.82;100.00;97053.92;1754392;81;20095;-75
2023/11/24 10:24:27;;;;;;;;;;;;;;;5.82;100.00;97064.25;1755154;81;20539;-68
2023/11/24 10:26:53;;;;;;;;;;;;;;;5.82;100.00;97059.09;1750601;80;20144;-69
2023/11/24 10:29:24;;;;;;;;;;;;;;;5.82;100.00;97050.05;1763786;80;20151;-69
2023/11/24 11:29:23;;;;;;;;;;;;;;;4.60;100.00;97119.84;1709255;83;20144;-65
2023/11/24 11:31:50;;;;;;;;;;;;;;;4.62;100.00;97126.98;1686634;84;20144;-73
2023/11/24 11:44:48;;;;;;;;;;;;;;;4.91;100.00;97145.30;1675913;84;20172;-66
2023/11/24 11:47:24;;;;;;;;;;;;;;;4.99;100.00;97138.59;1692706;83;20166;-64
2023/11/24 11:49:54;;;;;;;;;;;;;;;5.06;100.00;97136.82;1676836;86;20143;-81
2023/11/24 11:52:22;;;;;;;;;;;;;;;5.11;100.00;97134.70;1676298;85;20150;-65
2023/11/24 12:12:44;;;;;;;;;;;;;;;5.00;100.00;97178.09;1670550;84;20167;-71
2023/11/24 12:15:17;;;;;;;;;;;;;;;4.98;100.00;97184.66;1675802;84;20116;-67
2023/11/24 12:17:42;;;;;;;;;;;;;;;4.97;100.00;97188.65;1677869;83;20148;-68
2023/11/24 12:22:43;;;;;;;;;;;;;;;4.97;100.00;97192.52;1673682;85;20134;-71
2023/11/24 12:25:12;;;;;;;;;;;;;;;4.96;100.00;97195.56;1672722;84;20157;-78
2023/11/24 12:27:44;;;;;;;;;;;;;;;4.95;100.00;97197.80;1673244;84;20143;-73
2023/11/24 12:30:14;;;;;;;;;;;;;;;4.93;100.00;97193.70;1665778;85;20124;-68
2023/11/24 12:32:41;;;;;;;;;;;;;;;4.90;100.00;97204.25;1669268;84;20109;-72
2023/11/24 12:35:08;;;;;;;;;;;;;;;4.88;100.00;97190.19;1671169;85;20167;-69
2023/11/24 12:37:40;;;;;;;;;;;;;;;4.88;100.00;97194.05;1672385;85;20129;-74
2023/11/24 12:40:11;;;;;;;;;;;;;;;4.87;100.00;97187.73;1708710;82;20094;-70
2023/11/24 13:13:21;;;;;;;;;;;;;;;4.47;100.00;97222.20;1717884;82;20425;-74
2023/11/24 13:15:54;;;;;;;;;;;;;;;4.43;100.00;97228.53;1723589;82;20119;-78
2023/11/24 13:33:39;;;;;;;;;;;;;;;4.15;100.00;97229.80;1718908;81;20121;-76
2023/11/24 13:36:06;;;;;;;;;;;;;;;4.07;100.00;97234.70;1774892;81;20105;-75
2023/11/24 13:38:32;;;;;;;;;;;;;;;4.00;100.00;97234.33;1722582;80;20133;-73
2023/11/24 13:40:59;;;;;;;;;;;;;;;3.97;100.00;97235.41;1720694;81;20113;-69
2023/11/24 13:43:26;;;;;;;;;;;;;;;3.93;100.00;97236.56;1739692;81;20170;-70
2023/11/24 13:45:53;;;;;;;;;;;;;;;3.93;100.00;97248.14;1709002;81;20154;-68
2023/11/24 13:48:23;;;;;;;;;;;;;;;3.93;100.00;97243.47;1724632;82;20105;-69
2023/11/24 14:16:28;;;;;;;;;;;;;;;3.85;100.00;97259.47;1715323;83;20125;-68
2023/11/24 14:18:55;;;;;;;;;;;;;;;3.83;100.00;97264.37;1715136;82;20154;-75
2023/11/24 14:21:21;;;;;;;;;;;;;;;3.82;100.00;97262.27;1716906;82;20111;-74
2023/11/24 14:23:48;;;;;;;;;;;;;;;3.80;100.00;97270.56;1715492;83;20201;-65
2023/11/24 14:26:15;;;;;;;;;;;;;;;3.78;100.00;97279.32;1691426;82;20133;-70
2023/11/24 14:28:42;;;;;;;;;;;;;;;3.73;100.00;97277.08;1718045;82;20130;-67
2023/11/24 14:31:11;;;;;;;;;;;;;;;3.69;100.00;97287.23;1722763;82;20167;-67
2023/11/24 14:33:40;;;;;;;;;;;;;;;3.65;100.00;97283.23;1724454;82;20419;-67
2023/11/24 14:43:47;;;;;;;;;;;;;;;3.50;100.00;97285.18;1721209;82;20388;-73
2023/11/24 14:46:14;;;;;;;;;;;;;;;3.42;100.00;97282.33;1722680;83;20097;-70
2023/11/24 14:48:43;;;;;;;;;;;;;;;3.35;100.00;97285.80;1723406;83;20121;-74
2023/11/24 14:51:12;;;;;;;;;;;;;;;3.28;100.00;97289.72;1719342;83;20117;-72
2023/11/24 14:53:41;;;;;;;;;;;;;;;3.24;100.00;97288.76;1724975;82;20105;-70
